sensor_id;sensor_type;location;lat;lon;timestamp;P1;durP1;ratioP1;P2;durP2;ratioP2
75209;SDS011;63796;53.136;14.882;2023-04-24T00:02:07;5.40;;;3.60;;
75209;SDS011;63796;53.136;14.882;2023-04-24T00:04:38;6.70;;;3.80;;
75209;SDS011;63796;53.136;14.882;2023-04-24T00:07:08;6.20;;;4.10;;
75209;SDS011;63796;53.136;14.882;2023-04-24T00:09:36;7.80;;;4.50;;
75209;SDS011;63796;53.136;14.882;2023-04-24T00:12:03;7.80;;;5.40;;
75209;SDS011;63796;53.136;14.882;2023-04-24T00:14:31;11.40;;;5.80;;
75209;SDS011;63796;53.136;14.882;2023-04-24T00:16:58;7.70;;;5.10;;
75209;SDS011;63796;53.136;14.882;2023-04-24T00:19:26;7.30;;;4.50;;
75209;SDS011;63796;53.136;14.882;2023-04-24T00:21:53;4.50;;;3.40;;
75209;SDS011;63796;53.136;14.882;2023-04-24T00:24:21;6.30;;;4.20;;
75209;SDS011;63796;53.136;14.882;2023-04-24T00:26:48;5.50;;;4.10;;
75209;SDS011;63796;53.136;14.882;2023-04-24T00:29:15;6.70;;;4.80;;
75209;SDS011;63796;53.136;14.882;2023-04-24T00:31:43;9.90;;;5.00;;
75209;SDS011;63796;53.136;14.882;2023-04-24T00:34:10;6.90;;;3.80;;
75209;SDS011;63796;53.136;14.882;2023-04-24T00:36:38;8.00;;;3.90;;
75209;SDS011;63796;53.136;14.882;2023-04-24T00:39:06;7.10;;;5.00;;
75209;SDS011;63796;53.136;14.882;2023-04-24T00:41:35;8.00;;;5.20;;
75209;SDS011;63796;53.136;14.882;2023-04-24T00:44:03;8.70;;;5.60;;
75209;SDS011;63796;53.136;14.882;2023-04-24T00:46:31;8.10;;;5.10;;
75209;SDS011;63796;53.136;14.882;2023-04-24T00:48:59;9.90;;;5.80;;
75209;SDS011;63796;53.136;14.882;2023-04-24T00:51:26;9.40;;;5.10;;
75209;SDS011;63796;53.136;14.882;2023-04-24T00:53:54;6.30;;;4.40;;
75209;SDS011;63796;53.136;14.882;2023-04-24T00:56:22;6.30;;;4.70;;
75209;SDS011;63796;53.136;14.882;2023-04-24T00:58:50;5.40;;;4.20;;
75209;SDS011;63796;53.136;14.882;2023-04-24T01:01:21;8.80;;;5.10;;
75209;SDS011;63796;53.136;14.882;2023-04-24T01:03:51;6.40;;;4.50;;
75209;SDS011;63796;53.136;14.882;2023-04-24T01:06:19;7.00;;;4.60;;
75209;SDS011;63796;53.136;14.882;2023-04-24T01:08:47;6.30;;;4.60;;
75209;SDS011;63796;53.136;14.882;2023-04-24T01:11:15;6.90;;;4.80;;
75209;SDS011;63796;53.136;14.882;2023-04-24T01:13:42;8.70;;;5.00;;
75209;SDS011;63796;53.136;14.882;2023-04-24T01:16:09;7.20;;;4.70;;
75209;SDS011;63796;53.136;14.882;2023-04-24T01:18:37;6.80;;;4.90;;
75209;SDS011;63796;53.136;14.882;2023-04-24T01:21:06;6.40;;;4.70;;
75209;SDS011;63796;53.136;14.882;2023-04-24T01:23:35;6.30;;;4.40;;
75209;SDS011;63796;53.136;14.882;2023-04-24T01:26:02;8.00;;;4.40;;
75209;SDS011;63796;53.136;14.882;2023-04-24T01:28:30;5.40;;;4.40;;
75209;SDS011;63796;53.136;14.882;2023-04-24T01:30:57;6.30;;;4.50;;
75209;SDS011;63796;53.136;14.882;2023-04-24T01:33:25;7.90;;;4.90;;
75209;SDS011;63796;53.136;14.882;2023-04-24T01:35:53;7.20;;;4.50;;
75209;SDS011;63796;53.136;14.882;2023-04-24T01:38:21;7.60;;;4.50;;
75209;SDS011;63796;53.136;14.882;2023-04-24T01:40:49;7.20;;;4.00;;
75209;SDS011;63796;53.136;14.882;2023-04-24T01:43:17;7.10;;;4.20;;
75209;SDS011;63796;53.136;14.882;2023-04-24T01:45:44;6.80;;;4.30;;
75209;SDS011;63796;53.136;14.882;2023-04-24T01:48:13;4.00;;;3.60;;
75209;SDS011;63796;53.136;14.882;2023-04-24T01:50:40;5.30;;;3.60;;
75209;SDS011;63796;53.136;14.882;2023-04-24T01:53:07;3.60;;;3.00;;
75209;SDS011;63796;53.136;14.882;2023-04-24T01:55:35;3.10;;;2.70;;
75209;SDS011;63796;53.136;14.882;2023-04-24T01:58:02;5.40;;;3.40;;
75209;SDS011;63796;53.136;14.882;2023-04-24T02:00:29;5.10;;;3.60;;
75209;SDS011;63796;53.136;14.882;2023-04-24T02:02:57;7.20;;;3.50;;
75209;SDS011;63796;53.136;14.882;2023-04-24T02:05:24;8.50;;;3.70;;
75209;SDS011;63796;53.136;14.882;2023-04-24T02:07:52;7.00;;;3.30;;
75209;SDS011;63796;53.136;14.882;2023-04-24T02:10:19;4.80;;;3.30;;
75209;SDS011;63796;53.136;14.882;2023-04-24T02:12:46;7.00;;;3.50;;
75209;SDS011;63796;53.136;14.882;2023-04-24T02:15:14;5.50;;;3.00;;
75209;SDS011;63796;53.136;14.882;2023-04-24T02:17:42;6.10;;;3.60;;
75209;SDS011;63796;53.136;14.882;2023-04-24T02:20:09;5.30;;;3.30;;
75209;SDS011;63796;53.136;14.882;2023-04-24T02:22:37;4.40;;;3.20;;
75209;SDS011;63796;53.136;14.882;2023-04-24T02:25:04;4.90;;;3.70;;
75209;SDS011;63796;53.136;14.882;2023-04-24T02:27:32;4.40;;;3.40;;
75209;SDS011;63796;53.136;14.882;2023-04-24T02:29:59;4.40;;;3.30;;
75209;SDS011;63796;53.136;14.882;2023-04-24T02:32:27;6.60;;;3.30;;
75209;SDS011;63796;53.136;14.882;2023-04-24T02:34:54;6.60;;;3.40;;
75209;SDS011;63796;53.136;14.882;2023-04-24T02:37:22;4.20;;;3.20;;
75209;SDS011;63796;53.136;14.882;2023-04-24T02:39:49;4.60;;;3.40;;
75209;SDS011;63796;53.136;14.882;2023-04-24T02:42:16;6.10;;;3.30;;
75209;SDS011;63796;53.136;14.882;2023-04-24T02:44:43;3.80;;;3.30;;
75209;SDS011;63796;53.136;14.882;2023-04-24T02:47:11;4.80;;;4.00;;
75209;SDS011;63796;53.136;14.882;2023-04-24T02:49:38;4.80;;;3.30;;
75209;SDS011;63796;53.136;14.882;2023-04-24T02:52:05;3.80;;;3.00;;
75209;SDS011;63796;53.136;14.882;2023-04-24T02:54:33;4.90;;;3.50;;
75209;SDS011;63796;53.136;14.882;2023-04-24T02:57:00;3.40;;;2.90;;
75209;SDS011;63796;53.136;14.882;2023-04-24T02:59:28;3.70;;;3.30;;
75209;SDS011;63796;53.136;14.882;2023-04-24T03:01:55;5.40;;;3.60;;
75209;SDS011;63796;53.136;14.882;2023-04-24T03:04:23;6.40;;;3.50;;
75209;SDS011;63796;53.136;14.882;2023-04-24T03:06:51;4.30;;;3.30;;
75209;SDS011;63796;53.136;14.882;2023-04-24T03:09:20;6.50;;;3.70;;
75209;SDS011;63796;53.136;14.882;2023-04-24T03:11:49;5.80;;;3.80;;
75209;SDS011;63796;53.136;14.882;2023-04-24T03:14:16;6.20;;;4.10;;
75209;SDS011;63796;53.136;14.882;2023-04-24T03:16:43;5.10;;;3.90;;
75209;SDS011;63796;53.136;14.882;2023-04-24T03:19:11;8.60;;;3.80;;
75209;SDS011;63796;53.136;14.882;2023-04-24T03:21:39;7.30;;;3.60;;
75209;SDS011;63796;53.136;14.882;2023-04-24T03:24:08;8.00;;;4.00;;
75209;SDS011;63796;53.136;14.882;2023-04-24T03:26:36;4.70;;;3.50;;
75209;SDS011;63796;53.136;14.882;2023-04-24T03:29:03;5.40;;;4.10;;
75209;SDS011;63796;53.136;14.882;2023-04-24T03:31:30;6.40;;;4.00;;
75209;SDS011;63796;53.136;14.882;2023-04-24T03:33:58;6.00;;;3.40;;
75209;SDS011;63796;53.136;14.882;2023-04-24T03:36:25;9.30;;;4.50;;
75209;SDS011;63796;53.136;14.882;2023-04-24T03:38:53;5.90;;;4.50;;
75209;SDS011;63796;53.136;14.882;2023-04-24T03:41:20;7.80;;;4.60;;
75209;SDS011;63796;53.136;14.882;2023-04-24T03:43:48;7.50;;;5.30;;
75209;SDS011;63796;53.136;14.882;2023-04-24T03:46:16;8.70;;;4.70;;
75209;SDS011;63796;53.136;14.882;2023-04-24T03:48:47;9.20;;;5.90;;
75209;SDS011;63796;53.136;14.882;2023-04-24T03:51:14;7.40;;;5.80;;
75209;SDS011;63796;53.136;14.882;2023-04-24T03:53:42;8.90;;;6.30;;
75209;SDS011;63796;53.136;14.882;2023-04-24T03:56:09;7.60;;;6.10;;
75209;SDS011;63796;53.136;14.882;2023-04-24T03:58:36;10.10;;;6.80;;
75209;SDS011;63796;53.136;14.882;2023-04-24T04:01:03;8.50;;;6.20;;
75209;SDS011;63796;53.136;14.882;2023-04-24T04:03:31;8.50;;;6.40;;
75209;SDS011;63796;53.136;14.882;2023-04-24T04:05:58;8.70;;;6.10;;
75209;SDS011;63796;53.136;14.882;2023-04-24T04:08:26;8.90;;;6.00;;
75209;SDS011;63796;53.136;14.882;2023-04-24T04:10:53;9.40;;;6.00;;
75209;SDS011;63796;53.136;14.882;2023-04-24T04:13:20;9.10;;;6.30;;
75209;SDS011;63796;53.136;14.882;2023-04-24T04:15:48;9.70;;;7.10;;
75209;SDS011;63796;53.136;14.882;2023-04-24T04:18:15;8.40;;;6.60;;
75209;SDS011;63796;53.136;14.882;2023-04-24T04:20:43;8.90;;;6.70;;
75209;SDS011;63796;53.136;14.882;2023-04-24T04:23:10;9.80;;;6.80;;
75209;SDS011;63796;53.136;14.882;2023-04-24T04:25:37;8.30;;;6.50;;
75209;SDS011;63796;53.136;14.882;2023-04-24T04:28:05;10.20;;;6.90;;
75209;SDS011;63796;53.136;14.882;2023-04-24T04:30:32;8.50;;;6.20;;
75209;SDS011;63796;53.136;14.882;2023-04-24T04:32:59;8.70;;;6.10;;
75209;SDS011;63796;53.136;14.882;2023-04-24T04:35:27;8.10;;;6.50;;
75209;SDS011;63796;53.136;14.882;2023-04-24T04:37:54;10.30;;;6.60;;
75209;SDS011;63796;53.136;14.882;2023-04-24T04:40:25;8.80;;;6.60;;
75209;SDS011;63796;53.136;14.882;2023-04-24T04:42:54;11.50;;;7.10;;
75209;SDS011;63796;53.136;14.882;2023-04-24T04:45:22;8.70;;;6.30;;
75209;SDS011;63796;53.136;14.882;2023-04-24T04:47:51;12.30;;;6.70;;
75209;SDS011;63796;53.136;14.882;2023-04-24T04:50:18;11.50;;;7.10;;
75209;SDS011;63796;53.136;14.882;2023-04-24T04:52:46;9.00;;;6.60;;
75209;SDS011;63796;53.136;14.882;2023-04-24T04:55:14;11.50;;;7.80;;
75209;SDS011;63796;53.136;14.882;2023-04-24T04:57:41;12.80;;;7.30;;
75209;SDS011;63796;53.136;14.882;2023-04-24T05:00:10;10.30;;;8.50;;
75209;SDS011;63796;53.136;14.882;2023-04-24T05:02:38;14.20;;;8.90;;
75209;SDS011;63796;53.136;14.882;2023-04-24T05:05:06;12.80;;;8.80;;
75209;SDS011;63796;53.136;14.882;2023-04-24T05:07:34;15.10;;;9.20;;
75209;SDS011;63796;53.136;14.882;2023-04-24T05:10:03;12.80;;;8.50;;
75209;SDS011;63796;53.136;14.882;2023-04-24T05:12:30;15.10;;;8.60;;
75209;SDS011;63796;53.136;14.882;2023-04-24T05:14:58;10.60;;;8.40;;
75209;SDS011;63796;53.136;14.882;2023-04-24T05:17:25;12.80;;;8.70;;
75209;SDS011;63796;53.136;14.882;2023-04-24T05:19:53;12.00;;;9.60;;
75209;SDS011;63796;53.136;14.882;2023-04-24T05:22:20;12.20;;;9.90;;
75209;SDS011;63796;53.136;14.882;2023-04-24T05:24:48;11.30;;;8.90;;
75209;SDS011;63796;53.136;14.882;2023-04-24T05:27:15;11.80;;;9.00;;
75209;SDS011;63796;53.136;14.882;2023-04-24T05:29:43;16.20;;;9.00;;
75209;SDS011;63796;53.136;14.882;2023-04-24T05:32:11;12.20;;;8.30;;
75209;SDS011;63796;53.136;14.882;2023-04-24T05:34:38;11.30;;;8.90;;
75209;SDS011;63796;53.136;14.882;2023-04-24T05:37:06;10.80;;;8.30;;
75209;SDS011;63796;53.136;14.882;2023-04-24T05:39:36;11.70;;;8.50;;
75209;SDS011;63796;53.136;14.882;2023-04-24T05:42:03;10.80;;;7.90;;
75209;SDS011;63796;53.136;14.882;2023-04-24T05:44:31;15.60;;;9.60;;
75209;SDS011;63796;53.136;14.882;2023-04-24T05:46:59;10.40;;;8.70;;
75209;SDS011;63796;53.136;14.882;2023-04-24T05:49:27;10.40;;;8.20;;
75209;SDS011;63796;53.136;14.882;2023-04-24T05:51:55;10.20;;;7.70;;
75209;SDS011;63796;53.136;14.882;2023-04-24T05:54:22;9.20;;;7.50;;
75209;SDS011;63796;53.136;14.882;2023-04-24T05:56:49;12.90;;;7.40;;
75209;SDS011;63796;53.136;14.882;2023-04-24T05:59:17;8.10;;;7.30;;
75209;SDS011;63796;53.136;14.882;2023-04-24T06:01:45;9.50;;;6.60;;
75209;SDS011;63796;53.136;14.882;2023-04-24T06:04:13;9.60;;;7.10;;
75209;SDS011;63796;53.136;14.882;2023-04-24T06:06:41;7.70;;;6.70;;
75209;SDS011;63796;53.136;14.882;2023-04-24T06:09:09;8.10;;;6.80;;
75209;SDS011;63796;53.136;14.882;2023-04-24T06:11:36;9.80;;;6.70;;
75209;SDS011;63796;53.136;14.882;2023-04-24T06:14:03;7.90;;;6.60;;
75209;SDS011;63796;53.136;14.882;2023-04-24T06:16:31;6.90;;;6.20;;
75209;SDS011;63796;53.136;14.882;2023-04-24T06:18:58;7.70;;;6.40;;
75209;SDS011;63796;53.136;14.882;2023-04-24T06:21:26;6.10;;;5.60;;
75209;SDS011;63796;53.136;14.882;2023-04-24T06:23:54;6.40;;;5.70;;
75209;SDS011;63796;53.136;14.882;2023-04-24T06:26:23;6.60;;;5.60;;
75209;SDS011;63796;53.136;14.882;2023-04-24T06:28:52;6.70;;;5.70;;
75209;SDS011;63796;53.136;14.882;2023-04-24T06:31:20;6.20;;;5.60;;
75209;SDS011;63796;53.136;14.882;2023-04-24T06:33:48;7.90;;;5.90;;
75209;SDS011;63796;53.136;14.882;2023-04-24T06:36:16;9.90;;;6.10;;
75209;SDS011;63796;53.136;14.882;2023-04-24T06:38:44;6.70;;;5.80;;
75209;SDS011;63796;53.136;14.882;2023-04-24T06:41:12;6.90;;;5.70;;
75209;SDS011;63796;53.136;14.882;2023-04-24T06:43:40;6.50;;;5.70;;
75209;SDS011;63796;53.136;14.882;2023-04-24T06:46:07;5.70;;;5.10;;
75209;SDS011;63796;53.136;14.882;2023-04-24T06:48:35;6.50;;;5.20;;
75209;SDS011;63796;53.136;14.882;2023-04-24T06:51:02;5.90;;;5.20;;
75209;SDS011;63796;53.136;14.882;2023-04-24T06:53:30;6.00;;;5.40;;
75209;SDS011;63796;53.136;14.882;2023-04-24T06:55:57;7.30;;;5.40;;
75209;SDS011;63796;53.136;14.882;2023-04-24T06:58:25;5.60;;;5.10;;
75209;SDS011;63796;53.136;14.882;2023-04-24T07:00:52;6.20;;;5.00;;
75209;SDS011;63796;53.136;14.882;2023-04-24T07:03:19;5.10;;;4.70;;
75209;SDS011;63796;53.136;14.882;2023-04-24T07:05:48;4.70;;;4.30;;
75209;SDS011;63796;53.136;14.882;2023-04-24T07:08:16;5.30;;;4.00;;
75209;SDS011;63796;53.136;14.882;2023-04-24T07:10:45;4.90;;;4.00;;
75209;SDS011;63796;53.136;14.882;2023-04-24T07:13:12;6.60;;;4.30;;
75209;SDS011;63796;53.136;14.882;2023-04-24T07:15:39;5.20;;;3.90;;
75209;SDS011;63796;53.136;14.882;2023-04-24T07:18:07;4.90;;;4.20;;
75209;SDS011;63796;53.136;14.882;2023-04-24T07:20:35;4.20;;;3.80;;
75209;SDS011;63796;53.136;14.882;2023-04-24T07:23:02;4.20;;;3.70;;
75209;SDS011;63796;53.136;14.882;2023-04-24T07:25:30;4.30;;;4.00;;
75209;SDS011;63796;53.136;14.882;2023-04-24T07:27:58;5.10;;;3.80;;
75209;SDS011;63796;53.136;14.882;2023-04-24T07:30:26;6.20;;;3.90;;
75209;SDS011;63796;53.136;14.882;2023-04-24T07:32:55;5.40;;;3.40;;
75209;SDS011;63796;53.136;14.882;2023-04-24T07:35:23;7.50;;;3.90;;
75209;SDS011;63796;53.136;14.882;2023-04-24T07:37:55;10.50;;;4.00;;
75209;SDS011;63796;53.136;14.882;2023-04-24T07:40:22;5.20;;;3.60;;
75209;SDS011;63796;53.136;14.882;2023-04-24T07:42:50;6.30;;;3.30;;
75209;SDS011;63796;53.136;14.882;2023-04-24T07:45:18;6.40;;;3.90;;
75209;SDS011;63796;53.136;14.882;2023-04-24T07:47:45;4.70;;;3.70;;
75209;SDS011;63796;53.136;14.882;2023-04-24T07:50:13;5.00;;;3.40;;
75209;SDS011;63796;53.136;14.882;2023-04-24T07:52:40;3.30;;;3.00;;
75209;SDS011;63796;53.136;14.882;2023-04-24T07:55:07;5.20;;;2.90;;
75209;SDS011;63796;53.136;14.882;2023-04-24T07:57:36;5.70;;;2.90;;
75209;SDS011;63796;53.136;14.882;2023-04-24T08:00:04;6.30;;;3.00;;
75209;SDS011;63796;53.136;14.882;2023-04-24T08:02:32;3.80;;;2.20;;
75209;SDS011;63796;53.136;14.882;2023-04-24T08:05:00;5.60;;;2.60;;
75209;SDS011;63796;53.136;14.882;2023-04-24T08:07:28;3.20;;;2.50;;
75209;SDS011;63796;53.136;14.882;2023-04-24T08:09:55;2.70;;;2.30;;
75209;SDS011;63796;53.136;14.882;2023-04-24T08:12:23;2.40;;;2.20;;
75209;SDS011;63796;53.136;14.882;2023-04-24T08:14:50;3.00;;;2.30;;
75209;SDS011;63796;53.136;14.882;2023-04-24T08:17:17;7.30;;;3.10;;
75209;SDS011;63796;53.136;14.882;2023-04-24T08:19:44;3.80;;;3.00;;
75209;SDS011;63796;53.136;14.882;2023-04-24T08:22:15;5.10;;;2.90;;
75209;SDS011;63796;53.136;14.882;2023-04-24T08:24:43;10.20;;;2.90;;
75209;SDS011;63796;53.136;14.882;2023-04-24T08:27:10;2.40;;;2.20;;
75209;SDS011;63796;53.136;14.882;2023-04-24T08:29:38;3.20;;;2.70;;
75209;SDS011;63796;53.136;14.882;2023-04-24T08:32:05;2.50;;;2.30;;
75209;SDS011;63796;53.136;14.882;2023-04-24T08:34:33;2.90;;;2.30;;
75209;SDS011;63796;53.136;14.882;2023-04-24T08:37:02;2.80;;;2.70;;
75209;SDS011;63796;53.136;14.882;2023-04-24T08:39:30;3.50;;;2.90;;
75209;SDS011;63796;53.136;14.882;2023-04-24T08:41:57;3.40;;;3.10;;
75209;SDS011;63796;53.136;14.882;2023-04-24T08:44:32;3.20;;;2.90;;
75209;SDS011;63796;53.136;14.882;2023-04-24T08:47:02;3.90;;;3.60;;
75209;SDS011;63796;53.136;14.882;2023-04-24T08:49:29;3.80;;;3.40;;
75209;SDS011;63796;53.136;14.882;2023-04-24T08:51:57;3.10;;;2.90;;
75209;SDS011;63796;53.136;14.882;2023-04-24T08:54:26;6.00;;;3.50;;
75209;SDS011;63796;53.136;14.882;2023-04-24T08:56:58;4.10;;;2.80;;
75209;SDS011;63796;53.136;14.882;2023-04-24T08:59:29;2.60;;;2.50;;
75209;SDS011;63796;53.136;14.882;2023-04-24T09:01:57;4.40;;;2.40;;
75209;SDS011;63796;53.136;14.882;2023-04-24T09:04:25;2.50;;;2.20;;
75209;SDS011;63796;53.136;14.882;2023-04-24T09:06:57;1.90;;;1.80;;
75209;SDS011;63796;53.136;14.882;2023-04-24T09:09:25;2.00;;;1.90;;
75209;SDS011;63796;53.136;14.882;2023-04-24T09:11:53;3.60;;;2.00;;
75209;SDS011;63796;53.136;14.882;2023-04-24T09:14:24;2.30;;;2.10;;
75209;SDS011;63796;53.136;14.882;2023-04-24T09:16:51;3.00;;;2.00;;
75209;SDS011;63796;53.136;14.882;2023-04-24T09:19:19;1.50;;;1.40;;
75209;SDS011;63796;53.136;14.882;2023-04-24T09:21:48;1.70;;;1.60;;
75209;SDS011;63796;53.136;14.882;2023-04-24T09:24:19;3.90;;;1.80;;
75209;SDS011;63796;53.136;14.882;2023-04-24T09:26:56;1.80;;;1.70;;
75209;SDS011;63796;53.136;14.882;2023-04-24T09:29:26;2.20;;;1.80;;
75209;SDS011;63796;53.136;14.882;2023-04-24T09:31:53;5.30;;;2.50;;
75209;SDS011;63796;53.136;14.882;2023-04-24T09:34:26;2.60;;;2.10;;
75209;SDS011;63796;53.136;14.882;2023-04-24T09:36:54;3.10;;;1.90;;
75209;SDS011;63796;53.136;14.882;2023-04-24T09:39:21;3.10;;;2.40;;
75209;SDS011;63796;53.136;14.882;2023-04-24T09:41:54;6.80;;;2.10;;
75209;SDS011;63796;53.136;14.882;2023-04-24T09:44:27;3.50;;;2.40;;
75209;SDS011;63796;53.136;14.882;2023-04-24T09:46:57;2.60;;;1.90;;
75209;SDS011;63796;53.136;14.882;2023-04-24T09:49:31;3.60;;;2.40;;
75209;SDS011;63796;53.136;14.882;2023-04-24T09:52:04;2.20;;;1.90;;
75209;SDS011;63796;53.136;14.882;2023-04-24T09:54:32;2.80;;;1.70;;
75209;SDS011;63796;53.136;14.882;2023-04-24T09:57:00;2.00;;;1.70;;
75209;SDS011;63796;53.136;14.882;2023-04-24T09:59:27;3.20;;;2.20;;
75209;SDS011;63796;53.136;14.882;2023-04-24T10:01:55;3.90;;;1.80;;
75209;SDS011;63796;53.136;14.882;2023-04-24T10:04:25;4.10;;;1.90;;
75209;SDS011;63796;53.136;14.882;2023-04-24T10:06:55;1.80;;;1.50;;
75209;SDS011;63796;53.136;14.882;2023-04-24T10:09:25;3.50;;;1.60;;
75209;SDS011;63796;53.136;14.882;2023-04-24T10:11:54;4.00;;;1.60;;
75209;SDS011;63796;53.136;14.882;2023-04-24T10:14:23;3.30;;;1.60;;
75209;SDS011;63796;53.136;14.882;2023-04-24T10:33:33;1.50;;;1.30;;
75209;SDS011;63796;53.136;14.882;2023-04-24T10:36:01;3.20;;;1.60;;
75209;SDS011;63796;53.136;14.882;2023-04-24T10:38:29;2.40;;;1.40;;
75209;SDS011;63796;53.136;14.882;2023-04-24T10:41:08;1.70;;;1.20;;
75209;SDS011;63796;53.136;14.882;2023-04-24T10:43:36;2.80;;;1.40;;
75209;SDS011;63796;53.136;14.882;2023-04-24T10:46:05;2.70;;;1.30;;
75209;SDS011;63796;53.136;14.882;2023-04-24T10:48:33;2.70;;;1.70;;
75209;SDS011;63796;53.136;14.882;2023-04-24T10:51:01;2.10;;;1.10;;
75209;SDS011;63796;53.136;14.882;2023-04-24T10:53:29;1.70;;;1.40;;
75209;SDS011;63796;53.136;14.882;2023-04-24T10:58:42;3.50;;;1.40;;
75209;SDS011;63796;53.136;14.882;2023-04-24T11:01:26;1.50;;;0.90;;
75209;SDS011;63796;53.136;14.882;2023-04-24T11:03:59;1.80;;;1.10;;
75209;SDS011;63796;53.136;14.882;2023-04-24T11:06:32;2.20;;;1.40;;
75209;SDS011;63796;53.136;14.882;2023-04-24T11:09:06;1.80;;;1.60;;
75209;SDS011;63796;53.136;14.882;2023-04-24T11:11:36;3.20;;;1.30;;
75209;SDS011;63796;53.136;14.882;2023-04-24T11:14:05;1.60;;;1.40;;
75209;SDS011;63796;53.136;14.882;2023-04-24T11:17:05;3.00;;;1.70;;
75209;SDS011;63796;53.136;14.882;2023-04-24T11:19:34;3.20;;;1.30;;
75209;SDS011;63796;53.136;14.882;2023-04-24T11:22:06;1.80;;;1.50;;
75209;SDS011;63796;53.136;14.882;2023-04-24T11:27:16;2.40;;;1.60;;
75209;SDS011;63796;53.136;14.882;2023-04-24T11:32:26;4.70;;;1.60;;
75209;SDS011;63796;53.136;14.882;2023-04-24T11:37:29;2.40;;;1.10;;
75209;SDS011;63796;53.136;14.882;2023-04-24T11:40:00;3.70;;;1.30;;
75209;SDS011;63796;53.136;14.882;2023-04-24T11:42:28;2.90;;;1.20;;
75209;SDS011;63796;53.136;14.882;2023-04-24T11:45:00;1.40;;;1.30;;
75209;SDS011;63796;53.136;14.882;2023-04-24T11:47:30;1.20;;;1.10;;
75209;SDS011;63796;53.136;14.882;2023-04-24T11:50:00;1.00;;;0.80;;
75209;SDS011;63796;53.136;14.882;2023-04-24T11:52:29;2.30;;;0.90;;
75209;SDS011;63796;53.136;14.882;2023-04-24T11:54:57;2.10;;;1.10;;
75209;SDS011;63796;53.136;14.882;2023-04-24T11:57:25;1.10;;;1.00;;
75209;SDS011;63796;53.136;14.882;2023-04-24T12:00:01;0.80;;;0.60;;
75209;SDS011;63796;53.136;14.882;2023-04-24T12:02:31;2.30;;;0.70;;
75209;SDS011;63796;53.136;14.882;2023-04-24T12:04:59;2.60;;;0.90;;
75209;SDS011;63796;53.136;14.882;2023-04-24T12:07:26;1.10;;;0.90;;
75209;SDS011;63796;53.136;14.882;2023-04-24T12:09:58;1.60;;;1.20;;
75209;SDS011;63796;53.136;14.882;2023-04-24T12:12:27;1.50;;;0.70;;
75209;SDS011;63796;53.136;14.882;2023-04-24T12:14:58;2.30;;;0.80;;
75209;SDS011;63796;53.136;14.882;2023-04-24T12:17:30;1.20;;;0.70;;
75209;SDS011;63796;53.136;14.882;2023-04-24T12:20:00;0.80;;;0.80;;
75209;SDS011;63796;53.136;14.882;2023-04-24T12:22:42;3.50;;;0.60;;
75209;SDS011;63796;53.136;14.882;2023-04-24T12:25:11;4.00;;;1.40;;
75209;SDS011;63796;53.136;14.882;2023-04-24T12:27:38;1.50;;;0.60;;
75209;SDS011;63796;53.136;14.882;2023-04-24T12:30:09;0.60;;;0.60;;
75209;SDS011;63796;53.136;14.882;2023-04-24T12:32:44;1.50;;;0.70;;
75209;SDS011;63796;53.136;14.882;2023-04-24T12:35:12;1.40;;;1.00;;
75209;SDS011;63796;53.136;14.882;2023-04-24T12:37:42;0.70;;;0.70;;
75209;SDS011;63796;53.136;14.882;2023-04-24T12:40:13;0.80;;;0.50;;
75209;SDS011;63796;53.136;14.882;2023-04-24T12:42:43;2.90;;;0.50;;
75209;SDS011;63796;53.136;14.882;2023-04-24T12:45:11;1.50;;;0.70;;
75209;SDS011;63796;53.136;14.882;2023-04-24T12:47:40;1.00;;;0.50;;
75209;SDS011;63796;53.136;14.882;2023-04-24T12:50:09;0.60;;;0.60;;
75209;SDS011;63796;53.136;14.882;2023-04-24T12:52:36;5.20;;;1.10;;
75209;SDS011;63796;53.136;14.882;2023-04-24T12:55:05;1.60;;;0.50;;
75209;SDS011;63796;53.136;14.882;2023-04-24T12:57:36;2.20;;;0.70;;
75209;SDS011;63796;53.136;14.882;2023-04-24T13:00:05;3.30;;;1.20;;
75209;SDS011;63796;53.136;14.882;2023-04-24T13:02:33;1.70;;;0.50;;
75209;SDS011;63796;53.136;14.882;2023-04-24T13:05:01;1.40;;;0.60;;
75209;SDS011;63796;53.136;14.882;2023-04-24T13:07:29;2.40;;;0.60;;
75209;SDS011;63796;53.136;14.882;2023-04-24T13:10:14;5.40;;;1.00;;
75209;SDS011;63796;53.136;14.882;2023-04-24T13:12:41;1.20;;;0.50;;
75209;SDS011;63796;53.136;14.882;2023-04-24T13:15:12;1.40;;;0.70;;
75209;SDS011;63796;53.136;14.882;2023-04-24T13:17:40;3.10;;;0.70;;
75209;SDS011;63796;53.136;14.882;2023-04-24T13:20:07;2.90;;;0.40;;
75209;SDS011;63796;53.136;14.882;2023-04-24T13:22:35;2.00;;;0.90;;
75209;SDS011;63796;53.136;14.882;2023-04-24T13:25:04;4.50;;;0.90;;
75209;SDS011;63796;53.136;14.882;2023-04-24T13:27:33;1.20;;;0.70;;
75209;SDS011;63796;53.136;14.882;2023-04-24T13:30:00;0.50;;;0.50;;
75209;SDS011;63796;53.136;14.882;2023-04-24T13:32:27;0.70;;;0.30;;
75209;SDS011;63796;53.136;14.882;2023-04-24T13:34:56;1.70;;;0.70;;
75209;SDS011;63796;53.136;14.882;2023-04-24T13:37:23;0.90;;;0.60;;
75209;SDS011;63796;53.136;14.882;2023-04-24T13:39:51;1.60;;;0.50;;
75209;SDS011;63796;53.136;14.882;2023-04-24T13:42:18;1.60;;;0.30;;
75209;SDS011;63796;53.136;14.882;2023-04-24T13:44:47;1.20;;;0.20;;
75209;SDS011;63796;53.136;14.882;2023-04-24T13:47:14;1.60;;;0.30;;
75209;SDS011;63796;53.136;14.882;2023-04-24T13:49:42;1.10;;;0.30;;
75209;SDS011;63796;53.136;14.882;2023-04-24T13:52:09;1.70;;;0.40;;
75209;SDS011;63796;53.136;14.882;2023-04-24T13:54:37;0.40;;;0.20;;
75209;SDS011;63796;53.136;14.882;2023-04-24T13:57:04;0.70;;;0.30;;
75209;SDS011;63796;53.136;14.882;2023-04-24T13:59:31;1.40;;;0.40;;
75209;SDS011;63796;53.136;14.882;2023-04-24T14:01:59;1.00;;;0.20;;
75209;SDS011;63796;53.136;14.882;2023-04-24T14:04:26;1.40;;;0.60;;
75209;SDS011;63796;53.136;14.882;2023-04-24T14:06:53;2.70;;;1.10;;
75209;SDS011;63796;53.136;14.882;2023-04-24T14:09:21;2.10;;;0.40;;
75209;SDS011;63796;53.136;14.882;2023-04-24T14:11:48;0.40;;;0.10;;
75209;SDS011;63796;53.136;14.882;2023-04-24T14:14:15;0.60;;;0.20;;
75209;SDS011;63796;53.136;14.882;2023-04-24T14:16:42;2.10;;;1.70;;
75209;SDS011;63796;53.136;14.882;2023-04-24T14:19:10;0.30;;;0.20;;
75209;SDS011;63796;53.136;14.882;2023-04-24T14:21:37;2.60;;;0.40;;
75209;SDS011;63796;53.136;14.882;2023-04-24T14:24:04;1.50;;;0.20;;
75209;SDS011;63796;53.136;14.882;2023-04-24T14:26:31;13.10;;;8.80;;
75209;SDS011;63796;53.136;14.882;2023-04-24T14:28:59;9.30;;;3.10;;
75209;SDS011;63796;53.136;14.882;2023-04-24T14:31:40;1.70;;;1.20;;
75209;SDS011;63796;53.136;14.882;2023-04-24T14:34:08;2.80;;;1.50;;
75209;SDS011;63796;53.136;14.882;2023-04-24T14:36:35;6.40;;;4.40;;
75209;SDS011;63796;53.136;14.882;2023-04-24T14:39:02;4.30;;;3.50;;
75209;SDS011;63796;53.136;14.882;2023-04-24T14:41:34;2.30;;;2.10;;
75209;SDS011;63796;53.136;14.882;2023-04-24T14:44:03;2.00;;;0.40;;
75209;SDS011;63796;53.136;14.882;2023-04-24T14:46:30;2.10;;;0.30;;
75209;SDS011;63796;53.136;14.882;2023-04-24T14:48:58;3.20;;;0.30;;
75209;SDS011;63796;53.136;14.882;2023-04-24T14:51:25;1.70;;;0.30;;
75209;SDS011;63796;53.136;14.882;2023-04-24T14:53:52;6.50;;;4.10;;
75209;SDS011;63796;53.136;14.882;2023-04-24T14:56:20;18.20;;;7.90;;
75209;SDS011;63796;53.136;14.882;2023-04-24T14:58:47;9.80;;;3.90;;
75209;SDS011;63796;53.136;14.882;2023-04-24T15:01:14;1.90;;;1.10;;
75209;SDS011;63796;53.136;14.882;2023-04-24T15:03:43;3.30;;;1.60;;
75209;SDS011;63796;53.136;14.882;2023-04-24T15:06:12;4.20;;;2.60;;
75209;SDS011;63796;53.136;14.882;2023-04-24T15:08:39;3.20;;;1.70;;